createdAt,value
2018-12-11T00:01:09.631Z,100732.84
2018-12-11T00:03:44.156Z,100731.23
2018-12-11T00:06:17.863Z,100736.02
2018-12-11T00:08:52.167Z,100736.41
2018-12-11T00:11:25.693Z,100739.92
2018-12-11T00:14:06.409Z,100741.20
2018-12-11T00:16:40.629Z,100739.00
2018-12-11T00:19:14.708Z,100730.65
2018-12-11T00:21:47.677Z,100737.09
2018-12-11T00:24:29.965Z,100739.22
2018-12-11T00:27:03.331Z,100739.53
2018-12-11T00:29:36.633Z,100734.44
2018-12-11T00:32:10.631Z,100732.24
2018-12-11T00:34:43.725Z,100735.45
2018-12-11T00:37:18.328Z,100736.36
2018-12-11T00:39:52.442Z,100733.36
2018-12-11T00:42:25.505Z,100731.73
2018-12-11T00:44:59.185Z,100730.25
2018-12-11T00:47:32.553Z,100718.96
2018-12-11T00:50:05.609Z,100726.05
2018-12-11T00:52:39.089Z,100727.44
2018-12-11T00:55:12.080Z,100724.23
2018-12-11T00:57:45.076Z,100717.89
2018-12-11T01:00:18.705Z,100722.28
2018-12-11T01:02:51.877Z,100722.24
2018-12-11T01:05:24.876Z,100711.06
2018-12-11T01:07:58.449Z,100713.22
2018-12-11T01:10:32.947Z,100716.08
2018-12-11T01:13:06.648Z,100717.42
2018-12-11T01:15:41.144Z,100720.69
2018-12-11T01:18:17.252Z,100725.97
2018-12-11T01:20:50.136Z,100732.45
2018-12-11T01:23:23.547Z,100730.98
2018-12-11T01:25:56.579Z,100727.25
2018-12-11T01:28:29.684Z,100731.73
2018-12-11T01:31:03.808Z,100731.55
2018-12-11T01:33:36.925Z,100730.84
2018-12-11T01:36:09.935Z,100734.23
2018-12-11T01:38:43.794Z,100729.86
2018-12-11T01:41:16.740Z,100729.03
2018-12-11T01:43:49.840Z,100733.21
2018-12-11T01:46:23.321Z,100729.16
2018-12-11T01:48:57.255Z,100733.13
2018-12-11T01:51:30.312Z,100725.98
2018-12-11T01:54:04.737Z,100728.78
2018-12-11T01:56:37.694Z,100725.23
2018-12-11T01:59:10.794Z,100735.56
2018-12-11T02:01:44.576Z,100729.66
2018-12-11T02:04:17.623Z,100732.19
2018-12-11T02:06:50.659Z,100736.36
2018-12-11T02:09:25.286Z,100734.94
2018-12-11T02:11:58.738Z,100735.21
2018-12-11T02:14:31.828Z,100726.28
2018-12-11T02:17:05.347Z,100724.65
2018-12-11T02:19:38.423Z,100726.68
2018-12-11T02:22:11.533Z,100729.42
2018-12-11T02:24:45.320Z,100725.03
2018-12-11T02:27:18.237Z,100724.56
2018-12-11T02:29:51.187Z,100722.50
2018-12-11T02:32:24.636Z,100722.88
2018-12-11T02:34:57.604Z,100721.41
2018-12-11T02:37:30.649Z,100722.69
2018-12-11T02:40:04.665Z,100727.30
2018-12-11T02:42:37.617Z,100725.53
2018-12-11T02:45:13.627Z,100719.14
2018-12-11T02:47:47.076Z,100721.09
2018-12-11T02:50:20.072Z,100722.70
2018-12-11T02:52:53.046Z,100722.92
2018-12-11T02:55:26.444Z,100723.03
2018-12-11T02:57:59.369Z,100722.81
2018-12-11T03:00:32.391Z,100719.31
2018-12-11T03:03:05.569Z,100716.65
2018-12-11T03:05:38.623Z,100722.11
2018-12-11T03:08:11.835Z,100721.13
2018-12-11T03:10:45.650Z,100717.88
2018-12-11T03:13:18.572Z,100719.63
2018-12-11T03:15:51.599Z,100715.86
2018-12-11T03:18:25.961Z,100712.98
2018-12-11T03:20:59.007Z,100719.02
2018-12-11T03:23:31.923Z,100714.84
2018-12-11T03:26:05.371Z,100706.81
2018-12-11T03:28:38.275Z,100707.52
2018-12-11T03:31:11.322Z,100713.83
2018-12-11T03:33:44.687Z,100708.28
2018-12-11T03:36:17.564Z,100712.40
2018-12-11T03:38:50.549Z,100711.80
2018-12-11T03:41:24.543Z,100706.70
2018-12-11T03:43:57.780Z,100706.08
2018-12-11T03:46:31.258Z,100707.77
2018-12-11T03:49:05.915Z,100706.45
2018-12-11T03:51:39.993Z,100704.73
2018-12-11T03:54:13.008Z,100714.59
2018-12-11T03:56:46.377Z,100712.90
2018-12-11T03:59:19.415Z,100711.87
2018-12-11T04:01:52.478Z,100715.69
2018-12-11T04:04:29.020Z,100708.88
2018-12-11T04:07:02.100Z,100721.20
2018-12-11T04:09:35.057Z,100710.61
2018-12-11T04:12:08.531Z,100705.29
2018-12-11T04:14:41.528Z,100706.59
2018-12-11T04:17:14.563Z,100712.45
2018-12-11T04:19:48.833Z,100716.11
2018-12-11T04:22:21.855Z,100715.09
2018-12-11T04:24:54.748Z,100714.36
2018-12-11T04:27:29.224Z,100718.05
2018-12-11T04:30:05.160Z,100713.45
2018-12-11T04:32:39.251Z,100711.41
2018-12-11T04:35:12.550Z,100715.34
2018-12-11T04:37:45.643Z,100721.16
2018-12-11T04:40:18.680Z,100715.59
2018-12-11T04:42:52.216Z,100717.87
2018-12-11T04:45:25.124Z,100714.61
2018-12-11T04:47:58.677Z,100712.49
2018-12-11T04:50:32.104Z,100715.46
2018-12-11T04:53:05.171Z,100715.16
2018-12-11T04:55:38.355Z,100721.48
2018-12-11T04:58:13.024Z,100721.34
2018-12-11T05:00:46.181Z,100722.20
2018-12-11T05:03:19.158Z,100726.77
2018-12-11T05:05:52.468Z,100719.70
2018-12-11T05:08:25.525Z,100719.44
2018-12-11T05:10:58.546Z,100721.02
2018-12-11T05:13:32.185Z,100724.55
2018-12-11T05:16:05.349Z,100723.78
2018-12-11T05:18:38.253Z,100718.34
2018-12-11T05:21:12.915Z,100719.48
2018-12-11T05:23:45.884Z,100721.79
2018-12-11T05:26:18.973Z,100725.61
2018-12-11T05:28:52.505Z,100722.47
2018-12-11T05:31:26.390Z,100715.67
2018-12-11T05:33:59.548Z,100713.91
2018-12-11T05:36:34.322Z,100718.95
2018-12-11T05:39:08.422Z,100712.11
2018-12-11T05:41:41.266Z,100715.56
2018-12-11T05:44:14.752Z,100714.41
2018-12-11T05:46:48.340Z,100711.17
2018-12-11T05:49:22.324Z,100709.59
2018-12-11T05:51:56.082Z,100721.31
2018-12-11T05:54:29.159Z,100712.35
2018-12-11T05:57:02.055Z,100716.04
2018-12-11T05:59:35.505Z,100717.56
2018-12-11T06:02:09.648Z,100721.88
2018-12-11T06:04:43.631Z,100723.23
2018-12-11T06:07:20.379Z,100721.80
2018-12-11T06:09:55.162Z,100717.43
2018-12-11T06:12:32.677Z,100715.72
2018-12-11T06:15:07.725Z,100720.03
2018-12-11T06:17:40.604Z,100716.75
2018-12-11T06:20:15.220Z,100714.98
2018-12-11T06:22:48.224Z,100722.36
2018-12-11T06:25:21.274Z,100720.28
2018-12-11T06:27:54.249Z,100723.27
2018-12-11T06:30:27.513Z,100723.12
2018-12-11T06:33:01.728Z,100724.27
2018-12-11T06:35:36.581Z,100720.66
2018-12-11T06:38:09.599Z,100724.67
2018-12-11T06:40:42.646Z,100717.90
2018-12-11T06:43:16.676Z,100713.31
2018-12-11T06:45:50.505Z,100718.70
2018-12-11T06:48:24.432Z,100715.62
2018-12-11T06:50:57.492Z,100707.97
2018-12-11T06:53:32.735Z,100714.73
2018-12-11T06:56:05.983Z,100710.19
2018-12-11T06:58:40.800Z,100715.27
2018-12-11T07:01:14.067Z,100718.08
2018-12-11T07:03:47.071Z,100724.00
2018-12-11T07:06:21.430Z,100720.32
2018-12-11T07:08:54.557Z,100716.21
2018-12-11T07:11:27.477Z,100715.02
2018-12-11T07:14:01.489Z,100715.57
2018-12-11T07:16:36.759Z,100716.48
2018-12-11T07:19:11.488Z,100714.47
2018-12-11T07:21:46.504Z,100721.08
2018-12-11T07:24:20.009Z,100712.94
2018-12-11T07:26:55.324Z,100718.51
2018-12-11T07:29:28.227Z,100718.74
2018-12-11T07:32:01.788Z,100708.66
2018-12-11T07:34:36.009Z,100707.47
2018-12-11T07:37:09.772Z,100714.77
2018-12-11T07:39:42.638Z,100717.40
2018-12-11T07:42:17.345Z,100723.95
2018-12-11T07:44:52.969Z,100728.89
2018-12-11T07:47:29.059Z,100727.06
2018-12-11T07:50:07.883Z,100727.45
2018-12-11T07:52:41.859Z,100730.51
2018-12-11T07:55:16.369Z,100738.41
2018-12-11T07:57:49.292Z,100741.14
2018-12-11T08:00:22.288Z,100744.19
2018-12-11T08:02:57.757Z,100735.75
2018-12-11T08:05:30.736Z,100735.83
2018-12-11T08:08:04.752Z,100743.20
2018-12-11T08:10:38.964Z,100742.39
2018-12-11T08:13:12.237Z,100744.02
2018-12-11T08:15:45.173Z,100731.37
2018-12-11T08:18:20.731Z,100740.55
2018-12-11T08:20:54.893Z,100743.02
2018-12-11T08:23:29.228Z,100744.05
2018-12-11T08:26:02.641Z,100747.15
2018-12-11T08:28:36.680Z,100745.19
2018-12-11T08:31:10.362Z,100746.81
2018-12-11T08:33:45.211Z,100749.23
2018-12-11T08:36:19.720Z,100746.97
2018-12-11T08:38:55.573Z,100748.21
2018-12-11T08:41:34.889Z,100749.82
2018-12-11T08:44:10.742Z,100744.75
2018-12-11T08:46:43.741Z,100748.86
2018-12-11T08:49:19.882Z,100742.76
2018-12-11T08:51:54.237Z,100753.09
2018-12-11T08:54:27.841Z,100749.46
2018-12-11T08:57:02.979Z,100750.73
2018-12-11T08:59:37.085Z,100752.56
2018-12-11T09:02:12.656Z,100759.90
2018-12-11T09:04:45.767Z,100763.16
2018-12-11T09:07:18.741Z,100769.09
2018-12-11T09:09:53.285Z,100763.11
2018-12-11T09:12:27.873Z,100766.51
2018-12-11T09:15:06.246Z,100761.78
2018-12-11T09:17:39.104Z,100755.61
2018-12-11T09:20:13.451Z,100753.52
2018-12-11T09:22:47.685Z,100754.83
2018-12-11T09:25:23.760Z,100757.48
2018-12-11T09:27:56.617Z,100766.92
2018-12-11T09:30:32.751Z,100769.94
2018-12-11T09:33:05.800Z,100774.19
2018-12-11T09:35:41.042Z,100774.40
2018-12-11T09:38:15.850Z,100774.48
2018-12-11T09:40:50.695Z,100774.92
2018-12-11T09:43:23.692Z,100779.14
2018-12-11T09:45:57.276Z,100780.45
2018-12-11T09:48:31.652Z,100785.05
2018-12-11T09:51:06.773Z,100788.10
2018-12-11T09:53:40.735Z,100784.09
2018-12-11T09:56:14.916Z,100773.75
2018-12-11T09:58:49.052Z,100773.73
2018-12-11T10:01:22.435Z,100776.61
2018-12-11T10:03:56.898Z,100779.52
2018-12-11T10:06:29.914Z,100782.59
2018-12-11T10:09:05.007Z,100775.99
2018-12-11T10:11:39.017Z,100780.16
2018-12-11T10:14:12.380Z,100776.00
2018-12-11T10:16:46.673Z,100781.48
2018-12-11T10:19:20.267Z,100774.94
2018-12-11T10:21:54.063Z,100775.80
2018-12-11T10:24:27.687Z,100773.86
2018-12-11T10:27:01.622Z,100776.47
2018-12-11T10:29:34.604Z,100773.98
2018-12-11T10:32:09.661Z,100774.09
2018-12-11T10:34:43.642Z,100773.84
2018-12-11T10:37:18.315Z,100759.47
2018-12-11T10:39:55.936Z,100764.32
2018-12-11T10:42:31.252Z,100767.02
2018-12-11T10:45:06.516Z,100768.77
2018-12-11T10:47:40.533Z,100769.26
2018-12-11T10:50:13.863Z,100767.19
2018-12-11T10:52:47.929Z,100771.28
2018-12-11T10:55:24.386Z,100772.34
2018-12-11T10:57:59.557Z,100780.07
2018-12-11T11:00:40.351Z,100778.28
2018-12-11T11:03:16.230Z,100771.19
2018-12-11T11:05:51.481Z,100767.12
2018-12-11T11:08:26.556Z,100765.11
2018-12-11T11:11:00.108Z,100767.95
2018-12-11T11:13:34.574Z,100767.64
2018-12-11T11:16:14.327Z,100763.77
2018-12-11T11:18:47.630Z,100770.70
2018-12-11T11:21:20.641Z,100766.16
2018-12-11T11:23:55.071Z,100762.77
2018-12-11T11:26:29.525Z,100763.20
2018-12-11T11:29:04.471Z,100762.64
2018-12-11T11:31:37.546Z,100758.70
2018-12-11T11:34:11.739Z,100751.06
2018-12-11T11:36:44.892Z,100744.77
2018-12-11T11:39:17.960Z,100742.84
2018-12-11T11:41:50.869Z,100738.36
2018-12-11T11:44:25.808Z,100733.13
2018-12-11T11:46:58.679Z,100732.96
2018-12-11T11:49:32.860Z,100731.54
2018-12-11T11:52:07.380Z,100732.54
2018-12-11T11:54:41.782Z,100738.00
2018-12-11T11:57:15.735Z,100744.09
2018-12-11T11:59:49.044Z,100740.97
2018-12-11T12:02:22.016Z,100742.55
2018-12-11T12:04:55.672Z,100741.80
2018-12-11T12:07:30.005Z,100732.69
2018-12-11T12:10:03.203Z,100736.34
2018-12-11T12:12:36.955Z,100733.09
2018-12-11T12:15:16.123Z,100736.67
2018-12-11T12:17:50.124Z,100736.59
2018-12-11T12:20:23.883Z,100741.34
2018-12-11T12:22:56.921Z,100742.61
2018-12-11T12:25:30.730Z,100736.68
2018-12-11T12:28:03.791Z,100743.31
2018-12-11T12:30:38.255Z,100741.61
2018-12-11T12:33:12.348Z,100745.56
2018-12-11T12:35:45.325Z,100741.63
2018-12-11T12:38:18.377Z,100740.63
2018-12-11T12:40:51.449Z,100746.53
2018-12-11T12:43:24.572Z,100744.05
2018-12-11T12:45:59.198Z,100741.97
2018-12-11T12:48:33.594Z,100744.44
2018-12-11T12:51:07.839Z,100741.17
2018-12-11T12:53:41.981Z,100743.62
2018-12-11T12:56:14.972Z,100740.38
2018-12-11T12:58:51.272Z,100740.04
2018-12-11T13:01:24.679Z,100740.16
2018-12-11T13:03:57.848Z,100736.95
2018-12-11T13:06:31.957Z,100733.28
2018-12-11T13:09:10.889Z,100731.69
2018-12-11T13:11:45.024Z,100733.46
2018-12-11T13:14:22.441Z,100732.36
2018-12-11T13:16:56.015Z,100727.14
2018-12-11T13:19:32.538Z,100729.94
2018-12-11T13:22:06.166Z,100726.85
2018-12-11T13:24:41.495Z,100727.11
2018-12-11T13:27:15.449Z,100732.04
2018-12-11T13:29:48.448Z,100729.69
2018-12-11T13:32:21.605Z,100731.44
2018-12-11T13:35:00.221Z,100729.02
2018-12-11T13:37:35.931Z,100726.86
2018-12-11T13:40:09.478Z,100726.92
2018-12-11T13:42:43.536Z,100722.34
2018-12-11T13:45:16.494Z,100727.52
2018-12-11T13:47:51.400Z,100720.05
2018-12-11T13:50:26.077Z,100717.38
2018-12-11T13:53:00.043Z,100714.75
2018-12-11T13:55:35.045Z,100716.76
2018-12-11T13:58:08.076Z,100715.85
2018-12-11T14:00:44.984Z,100717.58
2018-12-11T14:03:32.093Z,100714.92
2018-12-11T14:06:10.293Z,100711.27
2018-12-11T14:08:44.369Z,100709.31
2018-12-11T14:11:18.145Z,100713.59
2018-12-11T14:13:52.260Z,100706.75
2018-12-11T14:16:28.168Z,100709.49
2018-12-11T14:19:01.522Z,100714.94
2018-12-11T14:21:35.057Z,100710.20
2018-12-11T14:24:10.692Z,100707.55
2018-12-11T14:26:47.441Z,100700.22
2018-12-11T14:29:22.030Z,100710.39
2018-12-11T14:31:55.336Z,100709.61
2018-12-11T14:34:28.293Z,100705.42
2018-12-11T14:37:01.896Z,100706.34
2018-12-11T14:39:37.044Z,100712.27
2018-12-11T14:42:12.396Z,100711.84
2018-12-11T14:44:46.603Z,100712.58
2018-12-11T14:47:22.808Z,100708.37
2018-12-11T14:49:57.913Z,100714.94
2018-12-11T14:52:31.883Z,100716.02
2018-12-11T14:55:08.269Z,100712.38
2018-12-11T14:57:47.978Z,100712.06
2018-12-11T15:00:27.955Z,100711.83
2018-12-11T15:03:04.642Z,100720.33
2018-12-11T15:05:40.360Z,100724.23
2018-12-11T15:08:15.316Z,100720.53
2018-12-11T15:10:50.747Z,100716.42
2018-12-11T15:13:26.921Z,100714.81
2018-12-11T15:16:01.476Z,100719.39
2018-12-11T15:18:34.892Z,100718.56
2018-12-11T15:21:08.696Z,100721.12
2018-12-11T15:23:45.241Z,100720.23
2018-12-11T15:26:19.722Z,100727.52
2018-12-11T15:28:57.750Z,100723.67
2018-12-11T15:31:37.815Z,100723.88
2018-12-11T15:34:14.197Z,100729.52
2018-12-11T15:36:47.378Z,100729.41
2018-12-11T15:39:21.467Z,100732.47
2018-12-11T15:41:55.773Z,100730.72
2018-12-11T15:44:30.859Z,100733.59
2018-12-11T15:47:09.137Z,100733.58
2018-12-11T15:49:43.238Z,100733.25
2018-12-11T15:52:17.628Z,100735.75
2018-12-11T15:54:53.451Z,100731.39
2018-12-11T15:57:28.470Z,100731.07
2018-12-11T16:00:07.202Z,100734.87
2018-12-11T16:02:41.341Z,100735.23
2018-12-11T16:05:15.667Z,100728.06
2018-12-11T16:07:50.127Z,100731.98
2018-12-11T16:10:23.882Z,100733.88
2018-12-11T16:12:58.802Z,100726.77
2018-12-11T16:15:37.804Z,100735.13
2018-12-11T16:18:13.359Z,100732.11
2018-12-11T16:20:54.191Z,100735.84
2018-12-11T16:23:28.436Z,100736.42
2018-12-11T16:26:07.747Z,100737.64
2018-12-11T16:28:45.605Z,100740.18
2018-12-11T16:31:22.564Z,100738.86
2018-12-11T16:33:58.037Z,100742.84
2018-12-11T16:36:31.973Z,100741.45
2018-12-11T16:39:07.933Z,100742.82
2018-12-11T16:41:41.716Z,100744.10
2018-12-11T16:44:14.945Z,100744.02
2018-12-11T16:46:48.564Z,100745.25
2018-12-11T16:49:25.124Z,100744.34
2018-12-11T16:52:00.672Z,100748.59
2018-12-11T16:54:35.043Z,100749.16
2018-12-11T16:57:08.832Z,100752.25
2018-12-11T16:59:43.577Z,100754.77
2018-12-11T17:02:20.740Z,100756.14
2018-12-11T17:04:57.878Z,100758.95
2018-12-11T17:07:33.902Z,100760.38
2018-12-11T17:10:07.965Z,100761.65
2018-12-11T17:12:45.919Z,100761.89
2018-12-11T17:15:24.876Z,100759.69
2018-12-11T17:17:59.794Z,100760.64
2018-12-11T17:20:34.026Z,100766.41
2018-12-11T17:23:08.123Z,100767.42
2018-12-11T17:25:42.853Z,100765.92
2018-12-11T17:28:22.539Z,100769.05
2018-12-11T17:30:57.801Z,100770.94
2018-12-11T17:33:31.921Z,100779.63
2018-12-11T17:36:06.048Z,100776.19
2018-12-11T17:38:39.038Z,100777.50
2018-12-11T17:41:14.610Z,100781.44
2018-12-11T17:43:48.519Z,100784.26
2018-12-11T17:46:22.830Z,100785.67
2018-12-11T17:48:56.892Z,100789.45
2018-12-11T17:51:30.752Z,100792.86
2018-12-11T17:54:09.135Z,100787.19
2018-12-11T17:56:49.639Z,100783.06
2018-12-11T17:59:25.748Z,100791.00
2018-12-11T18:02:05.268Z,100789.45
2018-12-11T18:04:42.384Z,100791.75
2018-12-11T18:07:26.663Z,100792.80
2018-12-11T18:10:12.315Z,100793.94
2018-12-11T18:12:48.629Z,100795.49
2018-12-11T18:15:23.952Z,100794.84
2018-12-11T18:17:57.476Z,100795.90
2018-12-11T18:20:36.491Z,100804.91
2018-12-11T18:23:11.969Z,100807.13
2018-12-11T18:25:47.273Z,100808.52
2018-12-11T18:28:23.756Z,100810.37
2018-12-11T18:31:00.745Z,100811.81
2018-12-11T18:33:35.593Z,100806.72
2018-12-11T18:36:10.984Z,100805.25
2018-12-11T18:38:45.154Z,100808.72
2018-12-11T18:41:24.435Z,100807.27
2018-12-11T18:44:01.568Z,100810.61
2018-12-11T18:46:36.667Z,100813.31
2018-12-11T18:49:14.479Z,100818.72
2018-12-11T18:51:49.979Z,100823.91
2018-12-11T18:54:23.529Z,100821.84
2018-12-11T18:56:58.209Z,100821.48
2018-12-11T18:59:33.269Z,100822.67
2018-12-11T19:02:08.875Z,100819.61
2018-12-11T19:04:44.045Z,100826.20
2018-12-11T19:07:17.657Z,100824.81
2018-12-11T19:09:53.144Z,100818.77
2018-12-11T19:12:30.099Z,100822.19
2018-12-11T19:15:05.869Z,100821.48
2018-12-11T19:17:49.102Z,100819.34
2018-12-11T19:20:31.434Z,100821.03
2018-12-11T19:23:29.800Z,100818.84
2018-12-11T19:26:04.846Z,100821.23
2018-12-11T19:28:39.030Z,100823.95
2018-12-11T19:31:15.210Z,100821.70
2018-12-11T19:33:49.509Z,100825.69
2018-12-11T19:36:23.777Z,100815.45
2018-12-11T19:38:59.461Z,100818.33
2018-12-11T19:41:36.254Z,100811.70
2018-12-11T19:44:14.034Z,100816.89
2018-12-11T19:46:49.298Z,100816.06
2018-12-11T19:49:26.651Z,100815.56
2018-12-11T19:52:01.382Z,100816.85
2018-12-11T19:54:35.052Z,100805.80
2018-12-11T19:57:10.658Z,100808.33
2018-12-11T19:59:44.808Z,100811.52
2018-12-11T20:02:19.733Z,100812.73
2018-12-11T20:04:55.657Z,100811.77
2018-12-11T20:07:30.077Z,100821.77
2018-12-11T20:10:10.640Z,100823.58
2018-12-11T20:12:43.981Z,100826.55
2018-12-11T20:15:19.369Z,100827.83
2018-12-11T20:17:55.363Z,100831.75
2018-12-11T20:20:32.788Z,100827.67
2018-12-11T20:23:07.872Z,100828.79
2018-12-11T20:25:43.324Z,100828.86
2018-12-11T20:28:17.805Z,100829.33
2018-12-11T20:30:51.826Z,100832.88
2018-12-11T20:33:26.178Z,100832.12
2018-12-11T20:36:02.333Z,100830.81
2018-12-11T20:38:37.056Z,100824.97
2018-12-11T20:41:10.065Z,100825.62
2018-12-11T20:43:43.910Z,100825.66
2018-12-11T20:46:18.543Z,100827.05
2018-12-11T20:48:53.162Z,100829.32
2018-12-11T20:51:26.755Z,100827.77
2018-12-11T20:54:01.328Z,100824.67
2018-12-11T20:56:34.497Z,100823.56
2018-12-11T20:59:08.382Z,100826.44
2018-12-11T21:01:42.729Z,100826.05
2018-12-11T21:04:17.117Z,100824.66
2018-12-11T21:06:50.616Z,100828.42
2018-12-11T21:09:25.450Z,100825.66
2018-12-11T21:11:58.579Z,100829.94
2018-12-11T21:14:33.332Z,100826.58
2018-12-11T21:17:08.375Z,100825.69
2018-12-11T21:19:41.620Z,100832.83
2018-12-11T21:22:17.276Z,100829.41
2018-12-11T21:24:51.466Z,100827.44
2018-12-11T21:27:25.840Z,100827.79
2018-12-11T21:30:01.397Z,100834.00
2018-12-11T21:32:36.625Z,100837.42
2018-12-11T21:35:10.453Z,100837.70
2018-12-11T21:37:44.666Z,100840.23
2018-12-11T21:40:18.047Z,100842.67
2018-12-11T21:42:51.995Z,100840.55
2018-12-11T21:45:25.683Z,100835.59
2018-12-11T21:47:58.719Z,100836.34
2018-12-11T21:50:32.053Z,100834.37
2018-12-11T21:53:07.630Z,100833.55
2018-12-11T21:55:41.864Z,100831.52
2018-12-11T21:58:16.704Z,100829.16
2018-12-11T22:00:52.064Z,100826.23
2018-12-11T22:03:28.697Z,100827.32
2018-12-11T22:06:02.628Z,100826.17
2018-12-11T22:08:36.538Z,100828.26
2018-12-11T22:11:11.377Z,100827.45
2018-12-11T22:13:45.043Z,100822.75
2018-12-11T22:16:18.872Z,100826.86
2018-12-11T22:18:52.297Z,100830.20
2018-12-11T22:21:25.437Z,100836.31
2018-12-11T22:23:58.450Z,100834.36
2018-12-11T22:26:32.117Z,100836.12
2018-12-11T22:29:05.344Z,100839.77
2018-12-11T22:31:38.400Z,100831.84
2018-12-11T22:34:11.830Z,100833.40
2018-12-11T22:36:46.531Z,100832.62
2018-12-11T22:39:20.496Z,100837.36
2018-12-11T22:41:55.008Z,100838.66
2018-12-11T22:44:28.494Z,100839.92
2018-12-11T22:47:03.572Z,100841.08
2018-12-11T22:49:37.183Z,100845.64
2018-12-11T22:52:10.107Z,100848.64
2018-12-11T22:54:43.869Z,100847.08
2018-12-11T22:57:18.278Z,100849.03
2018-12-11T22:59:51.352Z,100852.09
2018-12-11T23:02:25.363Z,100847.27
2018-12-11T23:04:58.749Z,100848.88
2018-12-11T23:07:31.762Z,100850.98
2018-12-11T23:10:05.129Z,100856.45
2018-12-11T23:12:39.348Z,100855.03
2018-12-11T23:15:13.963Z,100859.86
2018-12-11T23:17:48.351Z,100858.66
2018-12-11T23:20:21.345Z,100859.20
2018-12-11T23:22:56.375Z,100855.76
2018-12-11T23:25:32.529Z,100854.63
2018-12-11T23:28:05.616Z,100847.84
2018-12-11T23:30:38.571Z,100856.05
2018-12-11T23:33:12.132Z,100851.23
2018-12-11T23:35:45.708Z,100856.53
2018-12-11T23:38:19.252Z,100857.33
2018-12-11T23:40:53.185Z,100856.56
2018-12-11T23:43:27.262Z,100852.54
2018-12-11T23:46:00.635Z,100854.46
2018-12-11T23:48:33.756Z,100852.90
2018-12-11T23:51:06.819Z,100851.97
2018-12-11T23:53:41.806Z,100850.86
2018-12-11T23:56:15.984Z,100849.88
2018-12-11T23:58:49.588Z,100847.27
